createdAt,value
2022-09-15T00:01:14.446Z,12.61
2022-09-15T00:03:42.937Z,12.57
2022-09-15T00:06:11.309Z,12.47
2022-09-15T00:08:39.682Z,12.27
2022-09-15T00:11:10.846Z,12.14
2022-09-15T00:13:41.698Z,12.12
2022-09-15T00:16:14.737Z,12.04
2022-09-15T00:18:44.166Z,11.99
2022-09-15T00:37:18.325Z,11.92
2022-09-15T00:39:47.801Z,11.90
2022-09-15T00:42:17.514Z,11.89
2022-09-15T00:44:52.499Z,11.90
2022-09-15T00:47:23.333Z,11.93
2022-09-15T00:49:59.022Z,11.94
2022-09-15T00:52:32.201Z,11.93
2022-09-15T00:55:06.022Z,11.96
2022-09-15T00:57:38.130Z,11.95
2022-09-15T01:00:09.661Z,11.96
2022-09-15T01:02:39.845Z,11.96
2022-09-15T01:05:11.010Z,11.90
2022-09-15T01:07:56.518Z,11.91
2022-09-15T01:10:28.697Z,11.93
2022-09-15T01:12:59.544Z,11.94
2022-09-15T01:15:33.357Z,11.95
2022-09-15T01:18:12.617Z,11.98
2022-09-15T01:21:18.034Z,11.99
2022-09-15T01:24:18.522Z,11.99
2022-09-15T01:27:24.074Z,12.00
2022-09-15T01:30:03.267Z,11.99
2022-09-15T01:32:59.463Z,11.99
2022-09-15T01:35:45.334Z,12.01
2022-09-15T01:38:22.402Z,11.99
2022-09-15T01:40:55.148Z,12.01
2022-09-15T01:43:26.310Z,11.99
2022-09-15T01:45:56.063Z,12.02
2022-09-15T01:48:27.551Z,12.04
2022-09-15T01:50:58.662Z,12.04
2022-09-15T01:53:27.602Z,12.05
2022-09-15T01:55:59.290Z,12.07
2022-09-15T01:58:27.410Z,12.10
2022-09-15T02:01:00.257Z,12.08
2022-09-15T02:03:35.102Z,12.10
2022-09-15T02:06:09.871Z,12.08
2022-09-15T02:08:45.185Z,12.08
2022-09-15T02:11:17.603Z,12.09
2022-09-15T02:13:59.811Z,12.10
2022-09-15T02:16:34.353Z,12.10
2022-09-15T02:19:18.564Z,12.09
2022-09-15T02:21:56.306Z,12.11
2022-09-15T02:24:30.733Z,11.99
2022-09-15T02:27:00.200Z,12.13
2022-09-15T02:29:30.330Z,12.12
2022-09-15T02:32:06.809Z,12.13
2022-09-15T02:34:39.526Z,12.15
2022-09-15T02:37:07.813Z,12.14
2022-09-15T02:39:39.961Z,12.14
2022-09-15T02:42:08.550Z,12.19
2022-09-15T02:44:36.773Z,12.21
2022-09-15T02:47:06.305Z,12.20
2022-09-15T02:49:34.266Z,12.17
2022-09-15T02:52:02.256Z,12.14
2022-09-15T02:54:30.194Z,12.15
2022-09-15T02:57:00.081Z,12.15
2022-09-15T02:59:48.009Z,12.15
2022-09-15T03:02:18.633Z,12.18
2022-09-15T03:04:47.023Z,12.17
2022-09-15T03:07:15.280Z,12.19
2022-09-15T03:09:43.237Z,12.22
2022-09-15T03:12:11.203Z,12.18
2022-09-15T03:14:39.151Z,12.21
2022-09-15T03:17:07.137Z,12.24
2022-09-15T03:19:36.553Z,12.22
2022-09-15T03:22:04.882Z,12.17
2022-09-15T03:24:33.688Z,12.15
2022-09-15T03:27:01.736Z,12.14
2022-09-15T03:29:29.712Z,12.13
2022-09-15T03:31:57.841Z,12.08
2022-09-15T03:34:25.876Z,12.13
2022-09-15T03:36:55.165Z,12.10
2022-09-15T03:39:23.140Z,12.11
2022-09-15T03:41:51.105Z,12.12
2022-09-15T03:44:19.047Z,12.09
2022-09-15T03:46:47.106Z,12.11
2022-09-15T03:49:15.088Z,12.08
2022-09-15T03:51:43.207Z,12.06
2022-09-15T03:54:12.863Z,12.07
2022-09-15T03:56:40.800Z,12.08
2022-09-15T03:59:09.592Z,12.05
2022-09-15T04:01:37.607Z,12.04
2022-09-15T04:04:05.610Z,12.06
2022-09-15T04:06:33.551Z,12.07
2022-09-15T04:09:01.488Z,12.06
2022-09-15T04:11:30.954Z,12.06
2022-09-15T04:13:59.000Z,12.06
2022-09-15T04:16:28.602Z,12.07
2022-09-15T04:18:57.470Z,12.06
2022-09-15T04:21:27.548Z,12.07
2022-09-15T04:23:55.888Z,12.05
2022-09-15T04:26:27.054Z,12.07
2022-09-15T04:28:58.708Z,12.06
2022-09-15T04:31:29.759Z,12.03
2022-09-15T04:33:58.249Z,12.01
2022-09-15T04:36:28.312Z,12.01
2022-09-15T04:38:57.306Z,11.97
2022-09-15T04:41:25.731Z,11.99
2022-09-15T04:43:54.182Z,12.01
2022-09-15T04:46:23.560Z,12.01
2022-09-15T04:48:51.922Z,12.03
2022-09-15T04:51:22.017Z,11.99
2022-09-15T04:53:50.425Z,11.95
2022-09-15T04:56:20.855Z,11.98
2022-09-15T04:58:50.978Z,11.98
2022-09-15T05:01:21.944Z,11.80
2022-09-15T05:03:51.683Z,11.93
2022-09-15T05:06:21.412Z,11.93
2022-09-15T05:08:50.374Z,11.90
2022-09-15T05:11:19.349Z,11.84
2022-09-15T05:13:48.271Z,11.97
2022-09-15T05:16:18.295Z,11.99
2022-09-15T05:18:47.919Z,11.96
2022-09-15T05:21:19.636Z,12.01
2022-09-15T05:23:48.410Z,12.03
2022-09-15T05:26:18.620Z,11.97
2022-09-15T05:28:47.016Z,11.98
2022-09-15T05:31:18.685Z,11.97
2022-09-15T05:33:47.418Z,11.97
2022-09-15T05:36:17.367Z,11.97
2022-09-15T05:38:45.914Z,11.74
2022-09-15T05:41:17.588Z,11.89
2022-09-15T05:43:46.689Z,11.95
2022-09-15T05:46:15.486Z,12.01
2022-09-15T05:48:43.855Z,12.03
2022-09-15T05:51:12.366Z,11.98
2022-09-15T05:53:41.975Z,12.12
2022-09-15T05:56:12.966Z,12.14
2022-09-15T05:58:41.809Z,12.14
2022-09-15T06:01:13.288Z,12.17
2022-09-15T06:03:41.675Z,12.16
2022-09-15T06:06:10.208Z,12.15
2022-09-15T06:08:44.066Z,12.25
2022-09-15T06:11:16.139Z,12.21
2022-09-15T06:13:44.856Z,12.27
2022-09-15T06:16:15.018Z,12.24
2022-09-15T06:18:43.121Z,12.25
2022-09-15T06:21:13.370Z,12.30
2022-09-15T06:23:44.070Z,12.16
2022-09-15T06:26:17.788Z,12.31
2022-09-15T06:28:49.390Z,12.30
2022-09-15T06:31:17.705Z,12.30
2022-09-15T06:33:47.416Z,12.33
2022-09-15T06:36:16.690Z,12.36
2022-09-15T06:38:45.779Z,12.32
2022-09-15T06:41:15.447Z,12.34
2022-09-15T06:43:43.782Z,12.43
2022-09-15T06:46:13.965Z,12.47
2022-09-15T06:48:46.343Z,12.53
2022-09-15T06:51:18.579Z,12.53
2022-09-15T06:53:47.177Z,12.47
2022-09-15T06:56:18.578Z,12.44
2022-09-15T06:58:49.183Z,12.48
2022-09-15T07:01:21.637Z,12.54
2022-09-15T07:03:50.243Z,12.55
2022-09-15T07:06:19.111Z,12.60
2022-09-15T07:08:47.909Z,12.65
2022-09-15T07:11:18.289Z,12.71
2022-09-15T07:13:46.429Z,12.73
2022-09-15T07:16:14.683Z,12.82
2022-09-15T07:18:43.652Z,12.86
2022-09-15T07:21:14.665Z,12.95
2022-09-15T07:23:43.650Z,12.96
2022-09-15T07:26:13.327Z,13.05
2022-09-15T07:28:44.145Z,13.07
2022-09-15T07:31:16.161Z,13.11
2022-09-15T07:33:44.368Z,13.13
2022-09-15T07:36:12.783Z,13.19
2022-09-15T07:38:42.636Z,13.25
2022-09-15T07:41:12.571Z,13.33
2022-09-15T07:43:46.018Z,13.39
2022-09-15T07:46:14.317Z,13.59
2022-09-15T07:48:45.036Z,13.63
2022-09-15T07:51:13.125Z,13.67
2022-09-15T07:53:41.358Z,13.67
2022-09-15T07:56:09.561Z,13.67
2022-09-15T07:58:37.642Z,13.75
2022-09-15T08:01:11.177Z,13.71
2022-09-15T08:03:41.466Z,13.73
2022-09-15T08:06:10.493Z,13.76
2022-09-15T08:08:50.536Z,13.78
2022-09-15T08:11:20.361Z,13.91
2022-09-15T08:13:49.476Z,13.94
2022-09-15T08:16:21.530Z,14.00
2022-09-15T08:18:50.580Z,14.15
2022-09-15T08:21:21.188Z,14.17
2022-09-15T08:23:52.498Z,14.04
2022-09-15T08:26:20.654Z,14.06
2022-09-15T08:28:49.161Z,14.08
2022-09-15T08:31:18.853Z,14.14
2022-09-15T08:33:49.596Z,14.22
2022-09-15T08:36:17.576Z,14.16
2022-09-15T08:38:47.108Z,14.21
2022-09-15T08:41:18.350Z,14.28
2022-09-15T08:43:52.542Z,14.37
2022-09-15T08:46:27.405Z,14.33
2022-09-15T08:49:03.387Z,14.38
2022-09-15T08:51:37.119Z,14.32
2022-09-15T08:54:12.344Z,14.34
2022-09-15T08:56:42.577Z,14.44
2022-09-15T08:59:14.563Z,14.44
2022-09-15T09:01:58.299Z,14.38
2022-09-15T09:04:41.697Z,14.34
2022-09-15T09:07:21.605Z,14.64
2022-09-15T09:09:57.413Z,14.86
2022-09-15T09:12:42.159Z,14.91
2022-09-15T09:15:24.443Z,15.07
2022-09-15T09:18:14.301Z,15.07
2022-09-15T09:20:53.664Z,15.13
2022-09-15T09:23:25.546Z,14.96
2022-09-15T09:25:53.990Z,14.97
2022-09-15T09:28:32.076Z,14.74
2022-09-15T09:31:04.112Z,14.74
2022-09-15T09:33:47.334Z,14.69
2022-09-15T09:36:16.307Z,14.46
2022-09-15T09:38:47.060Z,14.19
2022-09-15T09:41:17.648Z,14.10
2022-09-15T09:43:47.524Z,14.12
2022-09-15T09:46:17.824Z,14.20
2022-09-15T09:48:53.467Z,14.15
2022-09-15T09:51:33.415Z,14.28
2022-09-15T09:54:16.075Z,14.29
2022-09-15T09:56:45.065Z,14.46
2022-09-15T09:59:41.080Z,14.55
2022-09-15T10:02:15.767Z,14.74
2022-09-15T10:04:46.878Z,14.77
2022-09-15T10:07:16.498Z,14.77
2022-09-15T10:09:56.617Z,14.87
2022-09-15T10:12:29.343Z,15.02
2022-09-15T10:15:00.559Z,15.15
2022-09-15T10:17:40.367Z,15.28
2022-09-15T10:20:25.334Z,15.51
2022-09-15T10:22:53.629Z,15.42
2022-09-15T10:25:55.083Z,15.35
2022-09-15T10:28:24.123Z,15.48
2022-09-15T10:31:04.939Z,15.58
2022-09-15T10:33:35.311Z,15.67
2022-09-15T10:36:07.470Z,15.60
2022-09-15T10:38:44.979Z,15.36
2022-09-15T10:41:21.857Z,15.10
2022-09-15T10:44:03.777Z,15.17
2022-09-15T10:46:45.113Z,15.23
2022-09-15T10:49:28.208Z,15.33
2022-09-15T10:52:08.038Z,15.43
2022-09-15T10:54:54.360Z,15.49
2022-09-15T10:57:35.633Z,15.79
2022-09-15T11:00:07.364Z,16.01
2022-09-15T11:02:52.680Z,15.90
2022-09-15T11:05:42.374Z,15.82
2022-09-15T11:08:34.598Z,15.61
2022-09-15T11:11:10.597Z,15.51
2022-09-15T11:13:52.743Z,15.42
2022-09-15T11:16:35.034Z,15.36
2022-09-15T11:19:23.951Z,15.15
2022-09-15T11:21:55.061Z,14.96
2022-09-15T11:24:45.390Z,14.64
2022-09-15T11:27:19.068Z,14.48
2022-09-15T11:30:02.749Z,14.49
2022-09-15T11:32:35.463Z,14.54
2022-09-15T11:35:29.167Z,14.61
2022-09-15T11:38:04.684Z,14.72
2022-09-15T11:40:38.640Z,14.90
2022-09-15T11:43:18.970Z,14.98
2022-09-15T11:45:52.059Z,15.04
2022-09-15T11:48:25.017Z,15.19
2022-09-15T11:50:57.663Z,15.25
2022-09-15T11:53:32.774Z,15.36
2022-09-15T11:56:12.931Z,15.54
2022-09-15T11:58:55.194Z,15.57
2022-09-15T12:01:26.272Z,15.59
2022-09-15T12:03:59.534Z,15.73
2022-09-15T12:06:35.892Z,15.86
2022-09-15T12:09:06.345Z,15.90
2022-09-15T12:11:41.814Z,15.97
2022-09-15T12:14:15.222Z,16.20
2022-09-15T12:16:43.767Z,16.26
2022-09-15T12:19:19.394Z,16.46
2022-09-15T12:21:53.962Z,16.83
2022-09-15T12:24:34.873Z,16.80
2022-09-15T12:27:04.469Z,16.77
2022-09-15T12:29:41.884Z,17.12
2022-09-15T12:32:23.254Z,17.51
2022-09-15T12:35:27.037Z,16.96
2022-09-15T12:37:57.167Z,16.69
2022-09-15T12:40:33.364Z,15.51
2022-09-15T12:43:04.521Z,14.80
2022-09-15T12:45:35.869Z,13.99
2022-09-15T12:48:07.828Z,13.66
2022-09-15T12:50:39.263Z,13.48
2022-09-15T12:53:20.191Z,13.46
2022-09-15T12:55:51.635Z,13.50
2022-09-15T12:58:27.632Z,13.62
2022-09-15T13:01:34.255Z,13.85
2022-09-15T13:04:46.918Z,14.06
2022-09-15T13:07:38.516Z,14.11
2022-09-15T13:10:36.682Z,14.12
2022-09-15T13:13:24.045Z,13.94
2022-09-15T13:15:55.804Z,13.59
2022-09-15T13:18:26.062Z,12.99
2022-09-15T13:21:00.391Z,12.76
2022-09-15T13:23:34.261Z,12.56
2022-09-15T13:26:06.441Z,12.39
2022-09-15T13:28:36.353Z,12.33
2022-09-15T13:31:17.098Z,12.36
2022-09-15T13:40:27.476Z,12.53
2022-09-15T13:43:17.164Z,12.61
2022-09-15T13:45:55.914Z,12.88
2022-09-15T13:48:43.540Z,13.21
2022-09-15T13:51:19.464Z,14.08
2022-09-15T13:53:51.925Z,15.22
2022-09-15T13:56:24.856Z,16.19
2022-09-15T13:59:04.492Z,17.85
2022-09-15T14:01:39.566Z,19.01
2022-09-15T14:04:13.142Z,18.68
2022-09-15T14:06:45.080Z,17.93
2022-09-15T14:09:17.382Z,17.92
2022-09-15T14:11:49.613Z,18.19
2022-09-15T14:14:36.968Z,18.60
2022-09-15T14:17:06.659Z,18.61
2022-09-15T14:19:36.956Z,19.70
2022-09-15T14:22:26.021Z,18.34
2022-09-15T14:24:54.978Z,17.13
2022-09-15T14:27:24.986Z,16.34
2022-09-15T14:29:55.410Z,14.89
2022-09-15T14:32:26.470Z,13.20
2022-09-15T14:34:56.186Z,12.47
2022-09-15T14:37:28.445Z,12.08
2022-09-15T14:39:58.181Z,11.75
2022-09-15T14:42:30.583Z,11.73
2022-09-15T14:48:02.228Z,11.68
2022-09-15T14:50:33.623Z,11.74
2022-09-15T14:53:05.354Z,11.78
2022-09-15T14:55:38.534Z,11.94
2022-09-15T14:58:12.819Z,12.83
2022-09-15T15:00:51.856Z,13.60
2022-09-15T15:03:32.660Z,15.08
2022-09-15T15:06:28.481Z,16.46
2022-09-15T15:08:59.315Z,17.59
2022-09-15T15:11:29.094Z,16.80
2022-09-15T15:13:58.188Z,16.15
2022-09-15T15:16:28.479Z,16.52
2022-09-15T15:18:58.981Z,16.98
2022-09-15T15:21:39.261Z,17.76
2022-09-15T15:24:21.646Z,17.86
2022-09-15T15:26:50.965Z,17.91
2022-09-15T15:29:44.775Z,18.57
2022-09-15T15:32:15.068Z,17.48
2022-09-15T15:34:51.742Z,16.10
2022-09-15T15:37:27.391Z,16.48
2022-09-15T15:39:56.752Z,16.54
2022-09-15T15:42:25.430Z,16.30
2022-09-15T15:45:01.629Z,15.95
2022-09-15T15:47:32.365Z,16.06
2022-09-15T15:50:14.075Z,16.35
2022-09-15T15:52:43.647Z,15.54
2022-09-15T15:55:15.206Z,15.74
2022-09-15T15:57:43.914Z,15.55
2022-09-15T16:00:21.656Z,15.16
2022-09-15T16:02:50.851Z,14.93
2022-09-15T16:05:22.090Z,14.69
2022-09-15T16:07:52.243Z,14.36
2022-09-15T16:10:22.625Z,14.20
2022-09-15T16:12:50.663Z,13.94
2022-09-15T16:15:21.138Z,13.77
2022-09-15T16:17:49.780Z,13.69
2022-09-15T16:20:19.651Z,13.45
2022-09-15T16:22:49.172Z,13.41
2022-09-15T16:25:19.631Z,13.47
2022-09-15T16:27:47.607Z,13.43
2022-09-15T16:30:15.689Z,13.65
2022-09-15T16:32:43.692Z,13.80
2022-09-15T16:35:21.754Z,13.66
2022-09-15T16:37:51.174Z,13.46
2022-09-15T16:40:19.372Z,13.55
2022-09-15T16:42:48.801Z,13.46
2022-09-15T16:45:25.560Z,13.41
2022-09-15T16:47:53.529Z,13.33
2022-09-15T16:50:21.564Z,13.31
2022-09-15T16:52:51.976Z,13.22
2022-09-15T16:55:33.008Z,13.26
2022-09-15T16:58:01.292Z,13.24
2022-09-15T17:00:29.683Z,13.19
2022-09-15T17:02:57.953Z,13.13
2022-09-15T17:05:29.592Z,12.91
2022-09-15T17:07:59.305Z,12.95
2022-09-15T17:10:27.310Z,12.90
2022-09-15T17:12:55.348Z,12.83
2022-09-15T17:15:26.914Z,12.80
2022-09-15T17:17:55.233Z,12.76
2022-09-15T17:20:24.983Z,12.68
2022-09-15T17:22:53.829Z,12.64
2022-09-15T17:25:27.464Z,12.42
2022-09-15T17:27:55.966Z,12.48
2022-09-15T17:30:26.587Z,12.43
2022-09-15T17:33:02.071Z,12.38
2022-09-15T17:35:33.814Z,12.30
2022-09-15T17:38:01.861Z,12.28
2022-09-15T17:40:31.878Z,12.19
2022-09-15T17:43:00.634Z,12.04
2022-09-15T17:45:32.170Z,12.12
2022-09-15T17:48:00.573Z,12.06
2022-09-15T17:50:30.176Z,12.03
2022-09-15T17:52:58.600Z,11.97
2022-09-15T17:55:29.689Z,11.92
2022-09-15T17:58:00.505Z,11.90
2022-09-15T18:00:31.597Z,11.85
2022-09-15T18:03:01.357Z,11.81
2022-09-15T18:05:31.488Z,11.84
2022-09-15T18:08:00.918Z,11.78
2022-09-15T18:10:29.233Z,11.78
2022-09-15T18:12:59.501Z,11.79
2022-09-15T18:15:30.412Z,11.73
2022-09-15T18:18:02.767Z,11.68
2022-09-15T18:20:33.115Z,11.66
2022-09-15T18:23:01.097Z,11.67
2022-09-15T18:25:31.693Z,11.72
2022-09-15T18:28:01.741Z,11.45
2022-09-15T18:30:31.946Z,11.76
2022-09-15T18:33:00.403Z,11.74
2022-09-15T18:35:28.418Z,11.72
2022-09-15T18:37:59.524Z,11.73
2022-09-15T18:40:28.790Z,11.79
2022-09-15T18:42:56.750Z,11.78
2022-09-15T18:45:26.569Z,11.76
2022-09-15T18:47:54.893Z,11.76
2022-09-15T18:50:25.184Z,11.74
2022-09-15T18:52:53.301Z,11.70
2022-09-15T18:55:23.283Z,11.65
2022-09-15T18:57:51.629Z,11.63
2022-09-15T19:00:21.980Z,11.58
2022-09-15T19:02:57.851Z,11.26
2022-09-15T19:05:26.766Z,11.36
2022-09-15T19:07:55.261Z,11.43
2022-09-15T19:10:24.972Z,11.42
2022-09-15T19:12:53.073Z,11.37
2022-09-15T19:15:23.587Z,11.43
2022-09-15T19:17:53.283Z,11.43
2022-09-15T19:20:21.405Z,11.42
2022-09-15T19:22:51.472Z,11.47
2022-09-15T19:25:20.383Z,11.39
2022-09-15T19:27:48.927Z,11.45
2022-09-15T19:30:16.942Z,11.39
2022-09-15T19:32:44.960Z,11.42
2022-09-15T19:35:14.400Z,11.36
2022-09-15T19:37:43.324Z,11.39
2022-09-15T19:40:13.188Z,11.39
2022-09-15T19:42:41.895Z,11.42
2022-09-15T19:45:12.169Z,11.42
2022-09-15T19:47:40.628Z,11.37
2022-09-15T19:50:10.037Z,11.37
2022-09-15T19:52:39.495Z,11.35
2022-09-15T19:55:09.629Z,11.39
2022-09-15T19:57:40.518Z,11.39
2022-09-15T20:00:10.966Z,11.37
2022-09-15T20:02:39.264Z,11.37
2022-09-15T20:05:09.056Z,11.32
2022-09-15T20:07:37.079Z,11.26
2022-09-15T20:10:07.413Z,11.23
2022-09-15T20:12:35.446Z,11.21
2022-09-15T20:15:03.463Z,11.19
2022-09-15T20:17:31.527Z,11.17
2022-09-15T20:19:59.536Z,11.13
2022-09-15T20:22:27.606Z,11.08
2022-09-15T20:24:56.075Z,11.09
2022-09-15T20:27:25.483Z,11.05
2022-09-15T20:29:53.487Z,10.98
2022-09-15T20:32:27.530Z,10.92
2022-09-15T20:34:56.777Z,10.81
2022-09-15T20:37:24.756Z,10.80
2022-09-15T20:39:52.823Z,10.74
2022-09-15T20:42:20.823Z,10.73
2022-09-15T20:44:50.181Z,10.66
2022-09-15T20:47:18.150Z,10.63
2022-09-15T20:49:46.144Z,10.55
2022-09-15T20:52:14.129Z,10.52
2022-09-15T20:54:42.150Z,10.55
2022-09-15T20:57:10.314Z,10.55
2022-09-15T20:59:38.469Z,10.54
2022-09-15T21:02:08.490Z,10.54
2022-09-15T21:04:36.694Z,10.53
2022-09-15T21:07:04.714Z,10.49
2022-09-15T21:09:32.724Z,10.49
2022-09-15T21:12:01.087Z,10.40
2022-09-15T21:14:29.225Z,10.43
2022-09-15T21:16:57.193Z,10.37
2022-09-15T21:19:26.827Z,10.33
2022-09-15T21:21:55.710Z,10.28
2022-09-15T21:24:23.893Z,10.21
2022-09-15T21:27:10.150Z,10.16
2022-09-15T21:29:38.101Z,10.15
2022-09-15T21:32:06.347Z,10.11
2022-09-15T21:34:35.707Z,10.09
2022-09-15T21:37:03.677Z,10.05
2022-09-15T21:39:31.695Z,10.01
2022-09-15T21:41:59.661Z,10.03
2022-09-15T21:44:27.637Z,10.07
2022-09-15T21:46:55.579Z,10.02
2022-09-15T21:49:23.619Z,9.99
2022-09-15T21:51:52.934Z,9.95
2022-09-15T21:54:21.047Z,9.95
2022-09-15T21:56:49.004Z,9.93
2022-09-15T21:59:18.080Z,9.89
2022-09-15T22:01:46.086Z,9.85
2022-09-15T22:04:14.113Z,9.82
2022-09-15T22:06:43.132Z,9.83
2022-09-15T22:09:16.278Z,9.84
2022-09-15T22:11:45.242Z,9.84
2022-09-15T22:14:14.242Z,9.90
2022-09-15T22:16:43.648Z,9.90
2022-09-15T22:19:12.765Z,9.90
2022-09-15T22:21:41.923Z,9.88
2022-09-15T22:24:13.909Z,9.85
2022-09-15T22:26:43.594Z,9.82
2022-09-15T22:29:12.416Z,9.84
2022-09-15T22:31:41.942Z,9.80
2022-09-15T22:34:10.320Z,9.81
2022-09-15T22:36:38.267Z,9.71
2022-09-15T22:39:06.666Z,9.69
2022-09-15T22:41:38.127Z,9.72
2022-09-15T22:44:06.899Z,9.64
2022-09-15T22:46:35.449Z,9.65
2022-09-15T22:49:03.615Z,9.66
2022-09-15T22:51:31.611Z,9.65
2022-09-15T22:54:02.920Z,9.64
2022-09-15T22:56:31.262Z,9.65
2022-09-15T22:59:00.774Z,9.69
2022-09-15T23:01:31.197Z,9.67
2022-09-15T23:04:01.404Z,9.55
2022-09-15T23:06:32.699Z,9.58
2022-09-15T23:09:03.248Z,9.57
2022-09-15T23:11:32.269Z,9.51
2022-09-15T23:14:02.176Z,9.50
2022-09-15T23:16:32.282Z,9.49
2022-09-15T23:19:01.265Z,9.50
2022-09-15T23:21:29.649Z,9.48
2022-09-15T23:23:59.239Z,9.51
2022-09-15T23:26:27.743Z,9.54
2022-09-15T23:28:56.195Z,9.56
2022-09-15T23:31:25.585Z,9.61
2022-09-15T23:33:53.702Z,9.61
2022-09-15T23:36:21.924Z,9.63
2022-09-15T23:38:50.513Z,9.64
2022-09-15T23:41:18.815Z,9.59
2022-09-15T23:43:47.231Z,9.56
2022-09-15T23:46:15.205Z,9.51
2022-09-15T23:48:44.800Z,9.47
2022-09-15T23:51:12.778Z,9.45
2022-09-15T23:53:40.821Z,9.40
2022-09-15T23:56:08.773Z,9.40
2022-09-15T23:58:36.890Z,9.38
